sensor_id;sensor_type;location;lat;lon;timestamp;P1;durP1;ratioP1;P2;durP2;ratioP2
1370;SDS011;14306;49.942;11.570;2022-09-12T00:00:24;19.73;;;11.27;;
1370;SDS011;14306;49.942;11.570;2022-09-12T00:02:51;17.40;;;10.23;;
1370;SDS011;14306;49.942;11.570;2022-09-12T00:05:20;26.80;;;11.70;;
1370;SDS011;14306;49.942;11.570;2022-09-12T00:07:48;16.63;;;11.30;;
1370;SDS011;14306;49.942;11.570;2022-09-12T00:10:16;19.70;;;11.60;;
1370;SDS011;14306;49.942;11.570;2022-09-12T00:12:44;23.13;;;12.50;;
1370;SDS011;14306;49.942;11.570;2022-09-12T00:15:13;20.50;;;11.00;;
1370;SDS011;14306;49.942;11.570;2022-09-12T00:17:41;26.67;;;13.80;;
1370;SDS011;14306;49.942;11.570;2022-09-12T00:20:09;29.70;;;14.87;;
1370;SDS011;14306;49.942;11.570;2022-09-12T00:22:37;21.93;;;12.60;;
1370;SDS011;14306;49.942;11.570;2022-09-12T00:25:05;17.90;;;11.50;;
1370;SDS011;14306;49.942;11.570;2022-09-12T00:27:34;22.90;;;11.40;;
1370;SDS011;14306;49.942;11.570;2022-09-12T00:30:02;19.57;;;11.90;;
1370;SDS011;14306;49.942;11.570;2022-09-12T00:32:32;23.73;;;13.03;;
1370;SDS011;14306;49.942;11.570;2022-09-12T00:35:00;24.97;;;11.23;;
1370;SDS011;14306;49.942;11.570;2022-09-12T00:37:28;17.00;;;11.47;;
1370;SDS011;14306;49.942;11.570;2022-09-12T00:39:56;18.37;;;10.87;;
1370;SDS011;14306;49.942;11.570;2022-09-12T00:42:24;19.13;;;11.27;;
1370;SDS011;14306;49.942;11.570;2022-09-12T00:44:52;24.93;;;12.67;;
1370;SDS011;14306;49.942;11.570;2022-09-12T00:47:21;24.37;;;12.47;;
1370;SDS011;14306;49.942;11.570;2022-09-12T00:49:54;23.30;;;12.77;;
1370;SDS011;14306;49.942;11.570;2022-09-12T00:52:27;33.90;;;14.27;;
1370;SDS011;14306;49.942;11.570;2022-09-12T00:54:58;28.20;;;11.30;;
1370;SDS011;14306;49.942;11.570;2022-09-12T00:57:33;24.80;;;11.60;;
1370;SDS011;14306;49.942;11.570;2022-09-12T01:00:07;27.07;;;10.87;;
1370;SDS011;14306;49.942;11.570;2022-09-12T01:02:42;20.13;;;12.20;;
1370;SDS011;14306;49.942;11.570;2022-09-12T01:05:13;27.10;;;12.97;;
1370;SDS011;14306;49.942;11.570;2022-09-12T01:07:41;32.33;;;13.80;;
1370;SDS011;14306;49.942;11.570;2022-09-12T01:10:13;29.80;;;14.63;;
1370;SDS011;14306;49.942;11.570;2022-09-12T01:12:42;31.37;;;13.90;;
1370;SDS011;14306;49.942;11.570;2022-09-12T01:15:10;25.53;;;13.77;;
1370;SDS011;14306;49.942;11.570;2022-09-12T01:17:42;31.30;;;14.37;;
1370;SDS011;14306;49.942;11.570;2022-09-12T01:20:33;31.23;;;12.40;;
1370;SDS011;14306;49.942;11.570;2022-09-12T01:23:23;23.53;;;12.97;;
1370;SDS011;14306;49.942;11.570;2022-09-12T01:26:10;44.73;;;13.77;;
1370;SDS011;14306;49.942;11.570;2022-09-12T01:29:08;28.77;;;12.40;;
1370;SDS011;14306;49.942;11.570;2022-09-12T01:31:56;58.47;;;14.47;;
1370;SDS011;14306;49.942;11.570;2022-09-12T01:34:33;251.83;;;22.20;;
1370;SDS011;14306;49.942;11.570;2022-09-12T01:37:10;24.40;;;11.37;;
1370;SDS011;14306;49.942;11.570;2022-09-12T01:39:46;55.63;;;13.90;;
1370;SDS011;14306;49.942;11.570;2022-09-12T01:42:22;58.07;;;12.40;;
1370;SDS011;14306;49.942;11.570;2022-09-12T01:44:59;41.60;;;13.60;;
1370;SDS011;14306;49.942;11.570;2022-09-12T01:47:40;66.27;;;12.30;;
1370;SDS011;14306;49.942;11.570;2022-09-12T01:50:12;26.03;;;11.20;;
1370;SDS011;14306;49.942;11.570;2022-09-12T01:52:45;52.20;;;13.00;;
1370;SDS011;14306;49.942;11.570;2022-09-12T01:55:17;79.73;;;14.20;;
1370;SDS011;14306;49.942;11.570;2022-09-12T01:57:50;74.53;;;14.57;;
1370;SDS011;14306;49.942;11.570;2022-09-12T02:00:21;58.47;;;14.00;;
1370;SDS011;14306;49.942;11.570;2022-09-12T02:02:51;25.13;;;11.20;;
1370;SDS011;14306;49.942;11.570;2022-09-12T02:05:24;40.43;;;11.60;;
1370;SDS011;14306;49.942;11.570;2022-09-12T02:07:59;53.90;;;12.20;;
1370;SDS011;14306;49.942;11.570;2022-09-12T02:10:31;26.80;;;12.03;;
1370;SDS011;14306;49.942;11.570;2022-09-12T02:13:07;32.50;;;12.00;;
1370;SDS011;14306;49.942;11.570;2022-09-12T02:15:39;53.07;;;12.47;;
1370;SDS011;14306;49.942;11.570;2022-09-12T02:18:14;56.03;;;13.67;;
1370;SDS011;14306;49.942;11.570;2022-09-12T02:20:45;48.07;;;12.30;;
1370;SDS011;14306;49.942;11.570;2022-09-12T02:23:16;39.57;;;10.63;;
1370;SDS011;14306;49.942;11.570;2022-09-12T02:25:50;58.37;;;13.10;;
1370;SDS011;14306;49.942;11.570;2022-09-12T02:28:22;40.23;;;10.23;;
1370;SDS011;14306;49.942;11.570;2022-09-12T02:30:55;28.43;;;12.07;;
1370;SDS011;14306;49.942;11.570;2022-09-12T02:33:34;55.33;;;12.40;;
1370;SDS011;14306;49.942;11.570;2022-09-12T02:36:11;40.47;;;11.17;;
1370;SDS011;14306;49.942;11.570;2022-09-12T02:38:50;52.63;;;11.60;;
1370;SDS011;14306;49.942;11.570;2022-09-12T02:41:18;31.60;;;11.27;;
1370;SDS011;14306;49.942;11.570;2022-09-12T02:43:47;61.83;;;12.97;;
1370;SDS011;14306;49.942;11.570;2022-09-12T02:46:19;32.80;;;10.70;;
1370;SDS011;14306;49.942;11.570;2022-09-12T02:48:51;41.50;;;12.23;;
1370;SDS011;14306;49.942;11.570;2022-09-12T02:51:19;21.13;;;11.97;;
1370;SDS011;14306;49.942;11.570;2022-09-12T02:53:49;34.57;;;11.50;;
1370;SDS011;14306;49.942;11.570;2022-09-12T02:56:17;82.60;;;12.30;;
1370;SDS011;14306;49.942;11.570;2022-09-12T02:58:51;56.50;;;10.60;;
1370;SDS011;14306;49.942;11.570;2022-09-12T03:01:24;54.30;;;10.20;;
1370;SDS011;14306;49.942;11.570;2022-09-12T03:04:09;40.97;;;10.33;;
1370;SDS011;14306;49.942;11.570;2022-09-12T03:06:59;35.43;;;8.87;;
1370;SDS011;14306;49.942;11.570;2022-09-12T03:09:42;49.73;;;10.60;;
1370;SDS011;14306;49.942;11.570;2022-09-12T03:12:21;51.37;;;10.53;;
1370;SDS011;14306;49.942;11.570;2022-09-12T03:14:59;112.13;;;13.53;;
1370;SDS011;14306;49.942;11.570;2022-09-12T03:17:51;36.23;;;9.80;;
1370;SDS011;14306;49.942;11.570;2022-09-12T03:20:32;36.20;;;10.87;;
1370;SDS011;14306;49.942;11.570;2022-09-12T03:23:11;77.63;;;12.77;;
1370;SDS011;14306;49.942;11.570;2022-09-12T03:25:51;65.13;;;12.93;;
1370;SDS011;14306;49.942;11.570;2022-09-12T03:28:23;62.50;;;10.63;;
1370;SDS011;14306;49.942;11.570;2022-09-12T03:30:52;58.07;;;10.97;;
1370;SDS011;14306;49.942;11.570;2022-09-12T03:33:23;72.67;;;10.13;;
1370;SDS011;14306;49.942;11.570;2022-09-12T03:35:53;22.67;;;8.43;;
1370;SDS011;14306;49.942;11.570;2022-09-12T03:38:22;9.90;;;7.30;;
1370;SDS011;14306;49.942;11.570;2022-09-12T03:40:50;22.63;;;8.10;;
1370;SDS011;14306;49.942;11.570;2022-09-12T03:43:20;12.13;;;7.20;;
1370;SDS011;14306;49.942;11.570;2022-09-12T03:45:49;14.63;;;8.13;;
1370;SDS011;14306;49.942;11.570;2022-09-12T03:48:18;27.00;;;9.30;;
1370;SDS011;14306;49.942;11.570;2022-09-12T03:50:46;33.83;;;10.53;;
1370;SDS011;14306;49.942;11.570;2022-09-12T03:53:15;21.10;;;9.47;;
1370;SDS011;14306;49.942;11.570;2022-09-12T03:55:44;17.70;;;8.83;;
1370;SDS011;14306;49.942;11.570;2022-09-12T03:58:12;19.77;;;9.80;;
1370;SDS011;14306;49.942;11.570;2022-09-12T04:00:40;44.73;;;9.57;;
1370;SDS011;14306;49.942;11.570;2022-09-12T04:03:09;16.10;;;7.93;;
1370;SDS011;14306;49.942;11.570;2022-09-12T04:05:37;9.00;;;6.70;;
1370;SDS011;14306;49.942;11.570;2022-09-12T04:08:05;9.40;;;7.13;;
1370;SDS011;14306;49.942;11.570;2022-09-12T04:10:35;7.53;;;6.03;;
1370;SDS011;14306;49.942;11.570;2022-09-12T04:13:03;9.30;;;6.37;;
1370;SDS011;14306;49.942;11.570;2022-09-12T04:15:31;18.53;;;8.47;;
1370;SDS011;14306;49.942;11.570;2022-09-12T04:17:59;11.73;;;6.77;;
1370;SDS011;14306;49.942;11.570;2022-09-12T04:20:31;9.47;;;7.67;;
1370;SDS011;14306;49.942;11.570;2022-09-12T04:22:59;12.30;;;7.07;;
1370;SDS011;14306;49.942;11.570;2022-09-12T04:25:27;10.73;;;8.03;;
1370;SDS011;14306;49.942;11.570;2022-09-12T04:27:58;27.47;;;7.63;;
1370;SDS011;14306;49.942;11.570;2022-09-12T04:30:26;13.13;;;7.40;;
1370;SDS011;14306;49.942;11.570;2022-09-12T04:32:54;17.77;;;8.07;;
1370;SDS011;14306;49.942;11.570;2022-09-12T04:35:22;56.90;;;9.77;;
1370;SDS011;14306;49.942;11.570;2022-09-12T04:37:50;19.33;;;8.23;;
1370;SDS011;14306;49.942;11.570;2022-09-12T04:40:18;21.17;;;9.20;;
1370;SDS011;14306;49.942;11.570;2022-09-12T04:42:46;95.27;;;10.97;;
1370;SDS011;14306;49.942;11.570;2022-09-12T04:45:16;53.97;;;9.73;;
1370;SDS011;14306;49.942;11.570;2022-09-12T04:47:44;29.23;;;9.67;;
1370;SDS011;14306;49.942;11.570;2022-09-12T04:50:13;15.30;;;8.87;;
1370;SDS011;14306;49.942;11.570;2022-09-12T04:52:41;17.77;;;9.50;;
1370;SDS011;14306;49.942;11.570;2022-09-12T04:55:09;16.60;;;10.20;;
1370;SDS011;14306;49.942;11.570;2022-09-12T04:57:37;19.13;;;11.73;;
1370;SDS011;14306;49.942;11.570;2022-09-12T05:00:05;19.23;;;9.40;;
1370;SDS011;14306;49.942;11.570;2022-09-12T05:02:37;15.83;;;9.23;;
1370;SDS011;14306;49.942;11.570;2022-09-12T05:05:05;16.17;;;9.03;;
1370;SDS011;14306;49.942;11.570;2022-09-12T05:07:34;23.70;;;8.93;;
1370;SDS011;14306;49.942;11.570;2022-09-12T05:10:02;12.00;;;8.10;;
1370;SDS011;14306;49.942;11.570;2022-09-12T05:12:31;11.20;;;7.40;;
1370;SDS011;14306;49.942;11.570;2022-09-12T05:14:59;23.53;;;8.80;;
1370;SDS011;14306;49.942;11.570;2022-09-12T05:17:27;13.67;;;8.60;;
1370;SDS011;14306;49.942;11.570;2022-09-12T05:19:57;14.90;;;7.67;;
1370;SDS011;14306;49.942;11.570;2022-09-12T05:22:26;11.87;;;7.80;;
1370;SDS011;14306;49.942;11.570;2022-09-12T05:24:54;13.93;;;7.77;;
1370;SDS011;14306;49.942;11.570;2022-09-12T05:27:22;58.57;;;10.37;;
1370;SDS011;14306;49.942;11.570;2022-09-12T05:29:50;11.30;;;7.30;;
1370;SDS011;14306;49.942;11.570;2022-09-12T05:32:18;35.10;;;7.30;;
1370;SDS011;14306;49.942;11.570;2022-09-12T05:34:48;63.63;;;8.17;;
1370;SDS011;14306;49.942;11.570;2022-09-12T05:37:18;42.43;;;9.07;;
1370;SDS011;14306;49.942;11.570;2022-09-12T05:39:49;45.40;;;7.80;;
1370;SDS011;14306;49.942;11.570;2022-09-12T05:42:17;11.83;;;6.93;;
1370;SDS011;14306;49.942;11.570;2022-09-12T05:44:46;22.40;;;7.83;;
1370;SDS011;14306;49.942;11.570;2022-09-12T05:47:14;11.57;;;6.30;;
1370;SDS011;14306;49.942;11.570;2022-09-12T05:49:45;26.13;;;7.33;;
1370;SDS011;14306;49.942;11.570;2022-09-12T05:52:21;20.57;;;6.40;;
1370;SDS011;14306;49.942;11.570;2022-09-12T05:54:49;52.63;;;7.80;;
1370;SDS011;14306;49.942;11.570;2022-09-12T05:57:17;30.27;;;7.20;;
1370;SDS011;14306;49.942;11.570;2022-09-12T05:59:45;5.73;;;4.40;;
1370;SDS011;14306;49.942;11.570;2022-09-12T06:02:15;46.27;;;8.33;;
1370;SDS011;14306;49.942;11.570;2022-09-12T06:04:43;13.17;;;6.20;;
1370;SDS011;14306;49.942;11.570;2022-09-12T06:07:12;19.47;;;6.47;;
1370;SDS011;14306;49.942;11.570;2022-09-12T06:09:42;10.07;;;5.33;;
1370;SDS011;14306;49.942;11.570;2022-09-12T06:12:10;12.10;;;6.20;;
1370;SDS011;14306;49.942;11.570;2022-09-12T06:14:39;7.73;;;6.00;;
1370;SDS011;14306;49.942;11.570;2022-09-12T06:17:06;9.60;;;5.00;;
1370;SDS011;14306;49.942;11.570;2022-09-12T06:19:34;7.20;;;6.00;;
1370;SDS011;14306;49.942;11.570;2022-09-12T06:22:03;10.93;;;6.50;;
1370;SDS011;14306;49.942;11.570;2022-09-12T06:24:31;12.33;;;7.67;;
1370;SDS011;14306;49.942;11.570;2022-09-12T06:27:00;12.10;;;8.10;;
1370;SDS011;14306;49.942;11.570;2022-09-12T06:29:28;10.93;;;7.60;;
1370;SDS011;14306;49.942;11.570;2022-09-12T06:31:57;12.83;;;8.20;;
1370;SDS011;14306;49.942;11.570;2022-09-12T06:34:26;12.17;;;8.20;;
1370;SDS011;14306;49.942;11.570;2022-09-12T06:36:54;9.30;;;6.93;;
1370;SDS011;14306;49.942;11.570;2022-09-12T06:39:23;11.77;;;7.67;;
1370;SDS011;14306;49.942;11.570;2022-09-12T06:41:51;8.73;;;7.43;;
1370;SDS011;14306;49.942;11.570;2022-09-12T06:44:21;8.93;;;6.83;;
1370;SDS011;14306;49.942;11.570;2022-09-12T06:46:49;9.60;;;7.00;;
1370;SDS011;14306;49.942;11.570;2022-09-12T06:49:19;9.33;;;7.07;;
1370;SDS011;14306;49.942;11.570;2022-09-12T06:51:47;7.13;;;6.37;;
1370;SDS011;14306;49.942;11.570;2022-09-12T06:54:15;10.00;;;6.00;;
1370;SDS011;14306;49.942;11.570;2022-09-12T06:56:45;9.40;;;6.47;;
1370;SDS011;14306;49.942;11.570;2022-09-12T06:59:13;9.57;;;6.27;;
1370;SDS011;14306;49.942;11.570;2022-09-12T07:01:42;7.03;;;5.50;;
1370;SDS011;14306;49.942;11.570;2022-09-12T07:04:11;7.60;;;5.73;;
1370;SDS011;14306;49.942;11.570;2022-09-12T07:06:39;8.30;;;5.73;;
1370;SDS011;14306;49.942;11.570;2022-09-12T07:09:10;6.00;;;5.40;;
1370;SDS011;14306;49.942;11.570;2022-09-12T07:11:41;10.20;;;5.93;;
1370;SDS011;14306;49.942;11.570;2022-09-12T07:14:11;6.23;;;5.50;;
1370;SDS011;14306;49.942;11.570;2022-09-12T07:16:40;7.57;;;5.63;;
1370;SDS011;14306;49.942;11.570;2022-09-12T07:19:11;7.33;;;5.60;;
1370;SDS011;14306;49.942;11.570;2022-09-12T07:21:39;10.30;;;6.63;;
1370;SDS011;14306;49.942;11.570;2022-09-12T07:24:08;5.80;;;5.13;;
1370;SDS011;14306;49.942;11.570;2022-09-12T07:26:36;8.83;;;6.33;;
1370;SDS011;14306;49.942;11.570;2022-09-12T07:29:12;5.93;;;5.30;;
1370;SDS011;14306;49.942;11.570;2022-09-12T07:32:01;5.70;;;5.07;;
1370;SDS011;14306;49.942;11.570;2022-09-12T07:34:33;5.37;;;4.87;;
1370;SDS011;14306;49.942;11.570;2022-09-12T07:37:01;5.20;;;4.70;;
1370;SDS011;14306;49.942;11.570;2022-09-12T07:39:29;8.43;;;6.30;;
1370;SDS011;14306;49.942;11.570;2022-09-12T07:41:57;8.87;;;5.40;;
1370;SDS011;14306;49.942;11.570;2022-09-12T07:44:26;5.07;;;4.60;;
1370;SDS011;14306;49.942;11.570;2022-09-12T07:46:54;6.10;;;4.80;;
1370;SDS011;14306;49.942;11.570;2022-09-12T07:49:22;4.83;;;4.33;;
1370;SDS011;14306;49.942;11.570;2022-09-12T07:51:52;4.80;;;4.30;;
1370;SDS011;14306;49.942;11.570;2022-09-12T07:54:20;6.37;;;5.50;;
1370;SDS011;14306;49.942;11.570;2022-09-12T07:56:49;7.07;;;5.60;;
1370;SDS011;14306;49.942;11.570;2022-09-12T07:59:17;6.20;;;5.30;;
1370;SDS011;14306;49.942;11.570;2022-09-12T08:02:05;5.93;;;5.40;;
1370;SDS011;14306;49.942;11.570;2022-09-12T08:04:42;6.70;;;4.30;;
1370;SDS011;14306;49.942;11.570;2022-09-12T08:07:11;6.63;;;4.20;;
1370;SDS011;14306;49.942;11.570;2022-09-12T08:09:40;4.70;;;4.30;;
1370;SDS011;14306;49.942;11.570;2022-09-12T08:12:08;6.07;;;4.70;;
1370;SDS011;14306;49.942;11.570;2022-09-12T08:14:36;5.00;;;4.60;;
1370;SDS011;14306;49.942;11.570;2022-09-12T08:17:04;4.57;;;4.07;;
1370;SDS011;14306;49.942;11.570;2022-09-12T08:19:32;4.87;;;4.37;;
1370;SDS011;14306;49.942;11.570;2022-09-12T08:22:00;4.60;;;4.10;;
1370;SDS011;14306;49.942;11.570;2022-09-12T08:24:30;6.93;;;4.00;;
1370;SDS011;14306;49.942;11.570;2022-09-12T08:26:58;5.57;;;4.90;;
1370;SDS011;14306;49.942;11.570;2022-09-12T08:29:27;4.27;;;3.87;;
1370;SDS011;14306;49.942;11.570;2022-09-12T08:31:55;6.83;;;3.70;;
1370;SDS011;14306;49.942;11.570;2022-09-12T08:34:23;4.83;;;3.83;;
1370;SDS011;14306;49.942;11.570;2022-09-12T08:36:51;10.83;;;4.27;;
1370;SDS011;14306;49.942;11.570;2022-09-12T08:39:20;3.90;;;3.47;;
1370;SDS011;14306;49.942;11.570;2022-09-12T08:41:56;6.33;;;5.37;;
1370;SDS011;14306;49.942;11.570;2022-09-12T08:44:35;3.60;;;3.30;;
1370;SDS011;14306;49.942;11.570;2022-09-12T08:47:20;4.67;;;4.20;;
1370;SDS011;14306;49.942;11.570;2022-09-12T08:49:54;4.40;;;3.87;;
1370;SDS011;14306;49.942;11.570;2022-09-12T08:52:28;4.23;;;3.90;;
1370;SDS011;14306;49.942;11.570;2022-09-12T08:55:04;3.90;;;3.60;;
1370;SDS011;14306;49.942;11.570;2022-09-12T08:57:41;4.20;;;3.80;;
1370;SDS011;14306;49.942;11.570;2022-09-12T09:00:11;4.93;;;3.70;;
1370;SDS011;14306;49.942;11.570;2022-09-12T09:02:48;3.03;;;2.73;;
1370;SDS011;14306;49.942;11.570;2022-09-12T09:05:29;5.93;;;3.30;;
1370;SDS011;14306;49.942;11.570;2022-09-12T09:11:08;3.53;;;3.23;;
1370;SDS011;14306;49.942;11.570;2022-09-12T09:13:56;7.77;;;4.37;;
1370;SDS011;14306;49.942;11.570;2022-09-12T09:16:55;11.33;;;3.30;;
1370;SDS011;14306;49.942;11.570;2022-09-12T09:19:24;3.40;;;2.90;;
1370;SDS011;14306;49.942;11.570;2022-09-12T09:21:57;3.20;;;2.90;;
1370;SDS011;14306;49.942;11.570;2022-09-12T09:24:27;3.93;;;2.73;;
1370;SDS011;14306;49.942;11.570;2022-09-12T09:27:01;4.83;;;3.20;;
1370;SDS011;14306;49.942;11.570;2022-09-12T09:29:54;3.07;;;2.40;;
1370;SDS011;14306;49.942;11.570;2022-09-12T09:32:24;2.90;;;2.70;;
1370;SDS011;14306;49.942;11.570;2022-09-12T09:34:54;4.83;;;2.60;;
1370;SDS011;14306;49.942;11.570;2022-09-12T09:37:25;2.20;;;2.00;;
1370;SDS011;14306;49.942;11.570;2022-09-12T09:40:03;3.50;;;3.20;;
1370;SDS011;14306;49.942;11.570;2022-09-12T09:42:42;5.20;;;2.70;;
1370;SDS011;14306;49.942;11.570;2022-09-12T09:45:19;3.83;;;2.37;;
1370;SDS011;14306;49.942;11.570;2022-09-12T09:47:50;3.00;;;2.43;;
1370;SDS011;14306;49.942;11.570;2022-09-12T09:50:23;2.80;;;2.60;;
1370;SDS011;14306;49.942;11.570;2022-09-12T09:52:52;2.63;;;2.43;;
1370;SDS011;14306;49.942;11.570;2022-09-12T09:55:23;2.43;;;2.23;;
1370;SDS011;14306;49.942;11.570;2022-09-12T09:57:54;4.57;;;2.77;;
1370;SDS011;14306;49.942;11.570;2022-09-12T10:00:24;2.90;;;2.30;;
1370;SDS011;14306;49.942;11.570;2022-09-12T10:02:59;2.97;;;2.70;;
1370;SDS011;14306;49.942;11.570;2022-09-12T10:05:51;2.40;;;2.20;;
1370;SDS011;14306;49.942;11.570;2022-09-12T10:08:21;3.30;;;2.23;;
1370;SDS011;14306;49.942;11.570;2022-09-12T10:10:52;3.27;;;2.50;;
1370;SDS011;14306;49.942;11.570;2022-09-12T10:13:27;2.77;;;1.73;;
1370;SDS011;14306;49.942;11.570;2022-09-12T10:16:02;2.80;;;2.20;;
1370;SDS011;14306;49.942;11.570;2022-09-12T10:18:36;3.10;;;2.43;;
1370;SDS011;14306;49.942;11.570;2022-09-12T10:21:14;2.70;;;2.33;;
1370;SDS011;14306;49.942;11.570;2022-09-12T10:23:46;1.60;;;1.50;;
1370;SDS011;14306;49.942;11.570;2022-09-12T10:26:18;2.33;;;2.03;;
1370;SDS011;14306;49.942;11.570;2022-09-12T10:28:48;2.60;;;1.90;;
1370;SDS011;14306;49.942;11.570;2022-09-12T10:31:23;1.97;;;1.77;;
1370;SDS011;14306;49.942;11.570;2022-09-12T10:33:55;3.17;;;1.60;;
1370;SDS011;14306;49.942;11.570;2022-09-12T10:36:34;1.23;;;1.13;;
1370;SDS011;14306;49.942;11.570;2022-09-12T10:39:04;3.07;;;1.87;;
1370;SDS011;14306;49.942;11.570;2022-09-12T10:41:34;2.03;;;1.87;;
1370;SDS011;14306;49.942;11.570;2022-09-12T10:44:13;1.77;;;1.60;;
1370;SDS011;14306;49.942;11.570;2022-09-12T10:46:44;1.57;;;1.40;;
1370;SDS011;14306;49.942;11.570;2022-09-12T10:49:18;1.80;;;1.50;;
1370;SDS011;14306;49.942;11.570;2022-09-12T10:51:49;1.90;;;1.80;;
1370;SDS011;14306;49.942;11.570;2022-09-12T10:54:19;5.33;;;1.80;;
1370;SDS011;14306;49.942;11.570;2022-09-12T10:56:56;1.43;;;1.33;;
1370;SDS011;14306;49.942;11.570;2022-09-12T10:59:49;2.10;;;1.90;;
1370;SDS011;14306;49.942;11.570;2022-09-12T11:02:32;2.50;;;2.30;;
1370;SDS011;14306;49.942;11.570;2022-09-12T11:05:11;4.40;;;2.60;;
1370;SDS011;14306;49.942;11.570;2022-09-12T11:07:48;5.23;;;2.80;;
1370;SDS011;14306;49.942;11.570;2022-09-12T11:10:29;3.00;;;1.50;;
1370;SDS011;14306;49.942;11.570;2022-09-12T11:13:16;1.93;;;1.73;;
1370;SDS011;14306;49.942;11.570;2022-09-12T11:15:55;1.63;;;1.53;;
1370;SDS011;14306;49.942;11.570;2022-09-12T11:18:41;4.17;;;2.17;;
1370;SDS011;14306;49.942;11.570;2022-09-12T11:21:26;2.07;;;1.60;;
1370;SDS011;14306;49.942;11.570;2022-09-12T11:24:13;2.07;;;1.87;;
1370;SDS011;14306;49.942;11.570;2022-09-12T11:26:59;1.53;;;1.43;;
1370;SDS011;14306;49.942;11.570;2022-09-12T11:29:39;2.33;;;1.63;;
1370;SDS011;14306;49.942;11.570;2022-09-12T11:35:17;2.40;;;1.60;;
1370;SDS011;14306;49.942;11.570;2022-09-12T11:40:41;3.37;;;2.17;;
1370;SDS011;14306;49.942;11.570;2022-09-12T11:43:19;3.53;;;2.13;;
1370;SDS011;14306;49.942;11.570;2022-09-12T11:45:52;1.70;;;1.60;;
1370;SDS011;14306;49.942;11.570;2022-09-12T11:48:25;2.63;;;2.43;;
1370;SDS011;14306;49.942;11.570;2022-09-12T11:51:03;2.00;;;1.80;;
1370;SDS011;14306;49.942;11.570;2022-09-12T11:53:41;2.20;;;2.00;;
1370;SDS011;14306;49.942;11.570;2022-09-12T11:56:12;2.10;;;1.70;;
1370;SDS011;14306;49.942;11.570;2022-09-12T11:58:45;3.53;;;2.47;;
1370;SDS011;14306;49.942;11.570;2022-09-12T12:01:20;2.37;;;1.97;;
1370;SDS011;14306;49.942;11.570;2022-09-12T12:03:52;2.57;;;2.00;;
1370;SDS011;14306;49.942;11.570;2022-09-12T12:06:25;2.87;;;2.17;;
1370;SDS011;14306;49.942;11.570;2022-09-12T12:08:58;2.20;;;2.00;;
1370;SDS011;14306;49.942;11.570;2022-09-12T12:11:28;1.83;;;1.73;;
1370;SDS011;14306;49.942;11.570;2022-09-12T12:14:00;3.43;;;1.87;;
1370;SDS011;14306;49.942;11.570;2022-09-12T12:16:30;3.43;;;2.20;;
1370;SDS011;14306;49.942;11.570;2022-09-12T12:19:00;3.03;;;2.20;;
1370;SDS011;14306;49.942;11.570;2022-09-12T12:21:40;2.43;;;2.20;;
1370;SDS011;14306;49.942;11.570;2022-09-12T12:24:15;2.03;;;1.83;;
1370;SDS011;14306;49.942;11.570;2022-09-12T12:26:54;4.80;;;2.97;;
1370;SDS011;14306;49.942;11.570;2022-09-12T12:29:37;2.93;;;1.80;;
1370;SDS011;14306;49.942;11.570;2022-09-12T12:32:22;3.93;;;1.67;;
1370;SDS011;14306;49.942;11.570;2022-09-12T12:38:03;2.13;;;1.90;;
1370;SDS011;14306;49.942;11.570;2022-09-12T12:40:58;2.10;;;1.90;;
1370;SDS011;14306;49.942;11.570;2022-09-12T12:47:24;3.30;;;2.10;;
1370;SDS011;14306;49.942;11.570;2022-09-12T12:49:55;3.10;;;2.50;;
1370;SDS011;14306;49.942;11.570;2022-09-12T12:52:26;3.77;;;3.00;;
1370;SDS011;14306;49.942;11.570;2022-09-12T12:54:59;3.47;;;3.07;;
1370;SDS011;14306;49.942;11.570;2022-09-12T12:57:30;2.73;;;2.53;;
1370;SDS011;14306;49.942;11.570;2022-09-12T13:00:23;3.20;;;2.30;;
1370;SDS011;14306;49.942;11.570;2022-09-12T13:02:55;3.40;;;2.70;;
1370;SDS011;14306;49.942;11.570;2022-09-12T13:05:27;2.23;;;2.03;;
1370;SDS011;14306;49.942;11.570;2022-09-12T13:08:05;2.60;;;2.40;;
1370;SDS011;14306;49.942;11.570;2022-09-12T13:10:37;2.30;;;1.77;;
1370;SDS011;14306;49.942;11.570;2022-09-12T13:13:16;3.03;;;2.70;;
1370;SDS011;14306;49.942;11.570;2022-09-12T13:15:50;2.83;;;1.93;;
1370;SDS011;14306;49.942;11.570;2022-09-12T13:18:22;3.50;;;2.37;;
1370;SDS011;14306;49.942;11.570;2022-09-12T13:20:54;4.83;;;1.80;;
1370;SDS011;14306;49.942;11.570;2022-09-12T13:23:31;3.40;;;2.37;;
1370;SDS011;14306;49.942;11.570;2022-09-12T13:26:02;2.80;;;2.50;;
1370;SDS011;14306;49.942;11.570;2022-09-12T13:28:36;5.00;;;3.43;;
1370;SDS011;14306;49.942;11.570;2022-09-12T13:31:07;2.20;;;2.00;;
1370;SDS011;14306;49.942;11.570;2022-09-12T13:33:42;2.20;;;2.00;;
1370;SDS011;14306;49.942;11.570;2022-09-12T13:36:36;2.60;;;2.40;;
1370;SDS011;14306;49.942;11.570;2022-09-12T13:39:13;2.60;;;2.40;;
1370;SDS011;14306;49.942;11.570;2022-09-12T13:44:47;1.80;;;1.70;;
1370;SDS011;14306;49.942;11.570;2022-09-12T13:47:18;5.80;;;2.50;;
1370;SDS011;14306;49.942;11.570;2022-09-12T13:49:51;2.30;;;2.10;;
1370;SDS011;14306;49.942;11.570;2022-09-12T13:52:22;4.03;;;2.53;;
1370;SDS011;14306;49.942;11.570;2022-09-12T13:54:52;2.30;;;2.10;;
1370;SDS011;14306;49.942;11.570;2022-09-12T13:57:28;4.37;;;2.60;;
1370;SDS011;14306;49.942;11.570;2022-09-12T14:00:02;4.10;;;2.47;;
1370;SDS011;14306;49.942;11.570;2022-09-12T14:02:33;2.13;;;2.03;;
1370;SDS011;14306;49.942;11.570;2022-09-12T14:05:12;2.83;;;2.10;;
1370;SDS011;14306;49.942;11.570;2022-09-12T14:07:56;2.60;;;2.40;;
1370;SDS011;14306;49.942;11.570;2022-09-12T14:10:29;5.30;;;2.60;;
1370;SDS011;14306;49.942;11.570;2022-09-12T14:13:02;2.20;;;2.00;;
1370;SDS011;14306;49.942;11.570;2022-09-12T14:15:38;2.60;;;2.40;;
1370;SDS011;14306;49.942;11.570;2022-09-12T14:18:19;2.40;;;2.20;;
1370;SDS011;14306;49.942;11.570;2022-09-12T14:20:50;2.80;;;2.60;;
1370;SDS011;14306;49.942;11.570;2022-09-12T14:23:22;2.57;;;2.33;;
1370;SDS011;14306;49.942;11.570;2022-09-12T14:25:54;3.57;;;2.50;;
1370;SDS011;14306;49.942;11.570;2022-09-12T14:28:25;3.60;;;2.70;;
1370;SDS011;14306;49.942;11.570;2022-09-12T14:30:58;3.03;;;1.90;;
1370;SDS011;14306;49.942;11.570;2022-09-12T14:33:31;2.43;;;2.23;;
1370;SDS011;14306;49.942;11.570;2022-09-12T14:36:07;5.20;;;2.60;;
1370;SDS011;14306;49.942;11.570;2022-09-12T14:38:39;3.43;;;2.03;;
1370;SDS011;14306;49.942;11.570;2022-09-12T14:41:11;4.30;;;3.60;;
1370;SDS011;14306;49.942;11.570;2022-09-12T14:43:49;3.73;;;2.90;;
1370;SDS011;14306;49.942;11.570;2022-09-12T14:46:23;3.00;;;2.60;;
1370;SDS011;14306;49.942;11.570;2022-09-12T14:48:54;3.00;;;2.27;;
1370;SDS011;14306;49.942;11.570;2022-09-12T14:51:26;3.77;;;2.90;;
1370;SDS011;14306;49.942;11.570;2022-09-12T14:53:57;4.73;;;3.67;;
1370;SDS011;14306;49.942;11.570;2022-09-12T14:59:23;2.73;;;2.53;;
1370;SDS011;14306;49.942;11.570;2022-09-12T15:04:48;5.73;;;2.63;;
1370;SDS011;14306;49.942;11.570;2022-09-12T15:07:20;1.83;;;1.73;;
1370;SDS011;14306;49.942;11.570;2022-09-12T15:09:55;2.90;;;2.60;;
1370;SDS011;14306;49.942;11.570;2022-09-12T15:12:25;2.70;;;2.50;;
1370;SDS011;14306;49.942;11.570;2022-09-12T15:14:54;4.80;;;2.60;;
1370;SDS011;14306;49.942;11.570;2022-09-12T15:17:28;3.30;;;2.57;;
1370;SDS011;14306;49.942;11.570;2022-09-12T15:19:56;6.97;;;3.17;;
1370;SDS011;14306;49.942;11.570;2022-09-12T15:22:24;5.00;;;2.37;;
1370;SDS011;14306;49.942;11.570;2022-09-12T15:24:52;3.33;;;2.93;;
1370;SDS011;14306;49.942;11.570;2022-09-12T15:27:23;3.63;;;2.17;;
1370;SDS011;14306;49.942;11.570;2022-09-12T15:29:51;4.50;;;2.23;;
1370;SDS011;14306;49.942;11.570;2022-09-12T15:32:21;3.83;;;2.60;;
1370;SDS011;14306;49.942;11.570;2022-09-12T15:34:51;4.80;;;2.20;;